createdAt,value
2023-08-23T00:01:40.321Z,97544.00
2023-08-23T00:04:08.403Z,97542.73
2023-08-23T00:06:36.594Z,97542.32
2023-08-23T00:09:07.917Z,97541.52
2023-08-23T00:11:36.040Z,97540.23
2023-08-23T00:14:04.033Z,97534.02
2023-08-23T00:16:31.956Z,97532.80
2023-08-23T00:19:00.087Z,97534.27
2023-08-23T00:21:31.321Z,97537.47
2023-08-23T00:23:59.287Z,97537.45
2023-08-23T00:26:27.672Z,97536.03
2023-08-23T00:28:55.731Z,97536.94
2023-08-23T00:31:23.945Z,97538.73
2023-08-23T00:33:52.032Z,97538.94
2023-08-23T00:36:20.248Z,97538.29
2023-08-23T00:38:48.526Z,97537.61
2023-08-23T00:41:16.796Z,97540.40
2023-08-23T00:43:44.975Z,97542.58
2023-08-23T00:46:13.740Z,97546.95
2023-08-23T00:48:42.448Z,97547.88
2023-08-23T00:51:11.366Z,97548.02
2023-08-23T00:53:39.717Z,97546.26
2023-08-23T00:56:08.218Z,97542.39
2023-08-23T00:58:36.682Z,97538.90
2023-08-23T01:01:05.782Z,97537.80
2023-08-23T01:03:34.561Z,97532.36
2023-08-23T01:06:17.754Z,97528.96
2023-08-23T01:08:48.961Z,97525.34
2023-08-23T01:11:42.677Z,97519.70
2023-08-23T01:14:41.848Z,97516.93
2023-08-23T01:17:11.325Z,97514.45
2023-08-23T01:19:49.362Z,97512.20
2023-08-23T01:22:25.607Z,97512.02
2023-08-23T01:24:54.997Z,97513.16
2023-08-23T01:27:23.211Z,97510.09
2023-08-23T01:29:51.240Z,97513.15
2023-08-23T01:32:38.507Z,97512.43
2023-08-23T01:35:18.254Z,97516.20
2023-08-23T01:37:51.709Z,97516.57
2023-08-23T01:40:20.106Z,97519.54
2023-08-23T01:42:49.273Z,97522.50
2023-08-23T01:45:17.357Z,97521.23
2023-08-23T01:47:45.713Z,97515.31
2023-08-23T01:50:14.407Z,97512.55
2023-08-23T01:52:42.422Z,97512.21
2023-08-23T01:55:10.602Z,97505.45
2023-08-23T01:57:40.366Z,97503.30
2023-08-23T02:00:09.198Z,97500.91
2023-08-23T02:02:42.542Z,97498.64
2023-08-23T02:05:10.815Z,97497.92
2023-08-23T02:07:38.907Z,97494.83
2023-08-23T02:10:07.569Z,97495.05
2023-08-23T02:12:35.746Z,97495.81
2023-08-23T02:15:04.165Z,97501.66
2023-08-23T02:17:32.278Z,97505.48
2023-08-23T02:20:00.236Z,97509.22
2023-08-23T02:22:28.364Z,97505.98
2023-08-23T02:24:57.429Z,97505.17
2023-08-23T02:27:25.428Z,97507.41
2023-08-23T02:29:54.040Z,97504.78
2023-08-23T02:32:22.573Z,97501.70
2023-08-23T02:34:50.992Z,97501.76
2023-08-23T02:37:19.244Z,97496.23
2023-08-23T02:39:47.428Z,97495.51
2023-08-23T02:42:15.600Z,97493.98
2023-08-23T02:44:43.875Z,97492.73
2023-08-23T02:47:11.904Z,97491.15
2023-08-23T02:49:39.827Z,97490.58
2023-08-23T02:52:07.745Z,97491.02
2023-08-23T02:54:37.234Z,97487.48
2023-08-23T02:57:05.444Z,97488.80
2023-08-23T02:59:33.455Z,97492.52
2023-08-23T03:02:01.425Z,97493.36
2023-08-23T03:04:29.982Z,97489.25
2023-08-23T03:06:57.858Z,97492.83
2023-08-23T03:09:25.725Z,97493.33
2023-08-23T03:11:53.927Z,97493.39
2023-08-23T03:14:21.879Z,97496.59
2023-08-23T03:16:50.140Z,97503.63
2023-08-23T03:19:18.312Z,97499.75
2023-08-23T03:21:46.211Z,97504.14
2023-08-23T03:24:14.339Z,97499.81
2023-08-23T03:26:42.616Z,97499.86
2023-08-23T03:29:11.392Z,97504.77
2023-08-23T03:31:40.004Z,97505.79
2023-08-23T03:34:09.357Z,97506.17
2023-08-23T03:36:37.458Z,97501.86
2023-08-23T03:39:05.474Z,97498.56
2023-08-23T03:41:33.563Z,97503.08
2023-08-23T03:44:01.489Z,97495.46
2023-08-23T03:46:29.681Z,97492.88
2023-08-23T03:48:57.945Z,97494.05
2023-08-23T03:51:26.021Z,97494.35
2023-08-23T03:53:54.517Z,97491.92
2023-08-23T03:56:22.437Z,97495.36
2023-08-23T03:58:52.014Z,97494.98
2023-08-23T04:01:19.973Z,97496.69
2023-08-23T04:03:48.190Z,97497.92
2023-08-23T04:06:16.210Z,97501.64
2023-08-23T04:08:44.570Z,97505.56
2023-08-23T04:11:12.778Z,97505.69
2023-08-23T04:13:42.448Z,97502.58
2023-08-23T04:16:13.199Z,97502.22
2023-08-23T04:18:41.399Z,97504.25
2023-08-23T04:21:09.439Z,97498.80
2023-08-23T04:23:38.229Z,97505.16
2023-08-23T04:26:06.397Z,97498.90
2023-08-23T04:28:34.404Z,97498.84
2023-08-23T04:31:02.908Z,97496.83
2023-08-23T04:33:37.385Z,97489.26
2023-08-23T04:36:05.942Z,97485.52
2023-08-23T04:38:34.027Z,97484.30
2023-08-23T04:41:03.407Z,97485.36
2023-08-23T04:43:33.036Z,97485.12
2023-08-23T04:46:01.669Z,97485.89
2023-08-23T04:48:29.883Z,97491.50
2023-08-23T04:50:59.157Z,97495.17
2023-08-23T04:53:28.594Z,97494.99
2023-08-23T04:56:00.112Z,97499.75
2023-08-23T04:58:31.491Z,97504.73
2023-08-23T05:01:05.152Z,97506.05
2023-08-23T05:03:34.645Z,97517.40
2023-08-23T05:06:03.720Z,97520.89
2023-08-23T05:08:33.685Z,97519.90
2023-08-23T05:11:04.811Z,97520.50
2023-08-23T05:13:32.944Z,97526.19
2023-08-23T05:16:02.223Z,97530.40
2023-08-23T05:18:30.621Z,97528.96
2023-08-23T05:21:03.779Z,97525.64
2023-08-23T05:23:32.300Z,97520.46
2023-08-23T05:26:01.796Z,97520.14
2023-08-23T05:28:30.622Z,97527.59
2023-08-23T05:31:04.346Z,97526.02
2023-08-23T05:33:32.920Z,97524.20
2023-08-23T05:36:00.766Z,97523.11
2023-08-23T05:38:30.468Z,97524.46
2023-08-23T05:40:59.757Z,97522.08
2023-08-23T05:43:28.746Z,97520.02
2023-08-23T05:45:57.962Z,97515.57
2023-08-23T05:48:26.045Z,97512.01
2023-08-23T05:50:54.429Z,97512.48
2023-08-23T05:53:22.317Z,97513.55
2023-08-23T05:55:51.076Z,97511.11
2023-08-23T05:58:19.884Z,97511.25
2023-08-23T06:00:50.635Z,97511.69
2023-08-23T06:03:18.868Z,97512.91
2023-08-23T06:05:47.111Z,97511.70
2023-08-23T06:08:15.122Z,97510.83
2023-08-23T06:10:43.022Z,97508.80
2023-08-23T06:13:10.865Z,97510.48
2023-08-23T06:15:39.109Z,97510.21
2023-08-23T06:18:07.564Z,97504.96
2023-08-23T06:20:35.569Z,97501.17
2023-08-23T06:23:04.159Z,97509.21
2023-08-23T06:25:32.177Z,97512.19
2023-08-23T06:27:59.973Z,97516.04
2023-08-23T06:30:27.959Z,97508.23
2023-08-23T06:32:57.258Z,97505.47
2023-08-23T06:35:27.474Z,97507.27
2023-08-23T06:37:55.861Z,97508.50
2023-08-23T06:40:24.443Z,97509.81
2023-08-23T06:42:52.420Z,97511.54
2023-08-23T06:45:20.678Z,97515.56
2023-08-23T06:47:50.560Z,97517.35
2023-08-23T06:50:19.058Z,97512.54
2023-08-23T06:52:47.726Z,97511.50
2023-08-23T06:55:15.999Z,97511.19
2023-08-23T06:57:44.045Z,97511.27
2023-08-23T07:00:13.931Z,97509.06
2023-08-23T07:02:42.497Z,97506.16
2023-08-23T07:05:10.569Z,97510.88
2023-08-23T07:07:38.888Z,97514.00
2023-08-23T07:10:17.885Z,97508.96
2023-08-23T07:12:55.252Z,97505.99
2023-08-23T07:15:24.241Z,97504.38
2023-08-23T07:17:52.232Z,97504.09
2023-08-23T07:20:20.578Z,97508.03
2023-08-23T07:22:48.659Z,97513.81
2023-08-23T07:25:17.338Z,97519.57
2023-08-23T07:27:46.092Z,97518.77
2023-08-23T07:30:14.980Z,97518.72
2023-08-23T07:32:44.089Z,97518.56
2023-08-23T07:35:12.185Z,97512.45
2023-08-23T07:37:40.285Z,97504.77
2023-08-23T07:40:10.905Z,97505.38
2023-08-23T07:42:39.336Z,97506.23
2023-08-23T07:45:09.127Z,97498.86
2023-08-23T07:47:38.186Z,97496.33
2023-08-23T07:50:07.480Z,97495.25
2023-08-23T07:52:36.752Z,97493.23
2023-08-23T07:55:06.551Z,97493.09
2023-08-23T07:57:34.857Z,97494.58
2023-08-23T08:00:03.214Z,97491.38
2023-08-23T08:02:34.498Z,97493.45
2023-08-23T08:05:02.699Z,97495.92
2023-08-23T08:08:06.165Z,97494.55
2023-08-23T08:10:21.394Z,97493.75
2023-08-23T08:12:49.495Z,97490.74
2023-08-23T08:15:17.622Z,97491.40
2023-08-23T08:17:46.565Z,97490.30
2023-08-23T08:20:15.267Z,97492.33
2023-08-23T08:22:43.408Z,97486.20
2023-08-23T08:25:14.097Z,97482.59
2023-08-23T08:27:43.041Z,97477.48
2023-08-23T08:30:11.858Z,97478.33
2023-08-23T08:32:40.103Z,97481.06
2023-08-23T08:35:34.973Z,97480.29
2023-08-23T08:38:03.409Z,97483.20
2023-08-23T08:40:31.222Z,97481.05
2023-08-23T08:43:00.272Z,97481.00
2023-08-23T08:45:28.517Z,97480.99
2023-08-23T08:47:56.695Z,97478.66
2023-08-23T08:50:27.155Z,97479.74
2023-08-23T08:52:57.371Z,97476.92
2023-08-23T08:55:26.053Z,97476.49
2023-08-23T08:57:55.578Z,97475.07
2023-08-23T09:00:31.134Z,97473.63
2023-08-23T09:03:00.759Z,97474.60
2023-08-23T09:05:29.498Z,97468.07
2023-08-23T09:07:58.193Z,97465.31
2023-08-23T09:10:26.354Z,97466.03
2023-08-23T09:12:54.394Z,97467.07
2023-08-23T09:15:25.419Z,97466.09
2023-08-23T09:17:57.072Z,97465.44
2023-08-23T09:20:25.697Z,97463.66
2023-08-23T09:22:54.608Z,97459.55
2023-08-23T09:25:24.871Z,97458.73
2023-08-23T09:27:56.384Z,97455.10
2023-08-23T09:30:25.523Z,97446.24
2023-08-23T09:32:53.842Z,97450.27
2023-08-23T09:35:22.071Z,97447.34
2023-08-23T09:37:50.720Z,97440.52
2023-08-23T09:40:27.996Z,97440.30
2023-08-23T09:42:59.831Z,97442.18
2023-08-23T09:45:29.421Z,97444.57
2023-08-23T09:48:03.378Z,97451.60
2023-08-23T09:50:33.731Z,97455.19
2023-08-23T09:53:07.499Z,97451.09
2023-08-23T09:55:36.218Z,97447.05
2023-08-23T09:58:04.722Z,97441.73
2023-08-23T10:00:33.911Z,97438.09
2023-08-23T10:03:02.451Z,97433.48
2023-08-23T10:05:31.010Z,97437.13
2023-08-23T10:07:59.046Z,97432.21
2023-08-23T10:10:28.768Z,97435.25
2023-08-23T10:13:05.364Z,97437.05
2023-08-23T10:15:37.156Z,97434.77
2023-08-23T10:18:09.260Z,97432.19
2023-08-23T10:20:38.389Z,97436.80
2023-08-23T10:23:17.245Z,97437.74
2023-08-23T10:25:49.559Z,97443.94
2023-08-23T10:28:19.571Z,97450.30
2023-08-23T10:30:50.975Z,97455.58
2023-08-23T10:33:21.210Z,97453.96
2023-08-23T10:35:49.338Z,97458.69
2023-08-23T10:38:17.364Z,97462.77
2023-08-23T10:40:46.551Z,97477.32
2023-08-23T10:43:19.633Z,97480.41
2023-08-23T10:46:03.998Z,97480.39
2023-08-23T10:48:33.116Z,97484.80
2023-08-23T10:51:01.994Z,97475.52
2023-08-23T10:53:31.516Z,97462.43
2023-08-23T10:56:03.750Z,97458.20
2023-08-23T10:58:32.947Z,97455.03
2023-08-23T11:01:01.240Z,97450.49
2023-08-23T11:03:29.928Z,97444.48
2023-08-23T11:05:58.132Z,97437.86
2023-08-23T11:08:26.420Z,97440.27
2023-08-23T11:10:54.491Z,97441.28
2023-08-23T11:13:22.843Z,97440.78
2023-08-23T11:15:51.048Z,97442.80
2023-08-23T11:18:19.369Z,97455.50
2023-08-23T11:20:47.655Z,97461.48
2023-08-23T11:23:15.574Z,97466.75
2023-08-23T11:25:43.575Z,97462.10
2023-08-23T11:28:13.869Z,97461.40
2023-08-23T11:30:45.376Z,97463.73
2023-08-23T11:33:13.678Z,97463.23
2023-08-23T11:35:41.744Z,97459.84
2023-08-23T11:38:09.944Z,97448.80
2023-08-23T11:40:37.970Z,97435.92
2023-08-23T11:43:21.868Z,97426.89
2023-08-23T11:45:53.902Z,97426.53
2023-08-23T11:48:25.007Z,97423.57
2023-08-23T11:50:54.137Z,97422.52
2023-08-23T11:53:22.343Z,97423.20
2023-08-23T11:55:51.395Z,97425.70
2023-08-23T11:58:19.721Z,97427.17
2023-08-23T12:00:50.048Z,97424.63
2023-08-23T12:03:18.711Z,97422.73
2023-08-23T12:05:47.033Z,97432.16
2023-08-23T12:08:15.126Z,97440.80
2023-08-23T12:10:43.331Z,97445.89
2023-08-23T12:13:13.471Z,97448.95
2023-08-23T12:15:41.924Z,97445.89
2023-08-23T12:18:09.844Z,97435.99
2023-08-23T12:20:37.904Z,97432.86
2023-08-23T12:23:05.795Z,97423.78
2023-08-23T12:25:34.694Z,97423.05
2023-08-23T12:28:02.665Z,97425.24
2023-08-23T12:30:31.869Z,97425.02
2023-08-23T12:33:00.006Z,97426.14
2023-08-23T12:35:27.981Z,97429.72
2023-08-23T12:37:55.922Z,97431.28
2023-08-23T12:40:24.054Z,97430.30
2023-08-23T12:42:53.148Z,97425.23
2023-08-23T12:45:21.750Z,97423.73
2023-08-23T12:47:50.081Z,97420.89
2023-08-23T12:50:18.894Z,97418.89
2023-08-23T12:52:46.999Z,97411.62
2023-08-23T12:55:15.249Z,97413.85
2023-08-23T12:57:43.248Z,97416.23
2023-08-23T13:00:29.300Z,97426.73
2023-08-23T13:03:01.255Z,97437.26
2023-08-23T13:05:29.552Z,97435.70
2023-08-23T13:07:57.820Z,97438.52
2023-08-23T13:10:26.003Z,97443.38
2023-08-23T13:12:54.098Z,97441.41
2023-08-23T13:15:22.253Z,97445.77
2023-08-23T13:17:55.708Z,97443.73
2023-08-23T13:20:25.726Z,97450.48
2023-08-23T13:22:54.553Z,97458.83
2023-08-23T13:25:22.729Z,97463.77
2023-08-23T13:27:51.335Z,97455.86
2023-08-23T13:30:19.895Z,97451.25
2023-08-23T13:32:47.861Z,97450.10
2023-08-23T13:35:16.345Z,97441.52
2023-08-23T13:37:47.821Z,97435.39
2023-08-23T13:40:16.360Z,97432.90
2023-08-23T13:42:44.455Z,97426.56
2023-08-23T13:45:12.453Z,97422.00
2023-08-23T13:47:40.725Z,97414.89
2023-08-23T13:50:10.471Z,97411.04
2023-08-23T13:52:38.526Z,97405.70
2023-08-23T13:55:07.663Z,97402.04
2023-08-23T13:57:36.994Z,97396.52
2023-08-23T14:00:06.037Z,97397.21
2023-08-23T14:02:36.053Z,97402.27
2023-08-23T14:05:05.032Z,97423.27
2023-08-23T14:07:33.081Z,97430.83
2023-08-23T14:10:01.141Z,97435.41
2023-08-23T14:12:29.364Z,97444.05
2023-08-23T14:14:57.283Z,97457.05
2023-08-23T14:17:25.214Z,97467.31
2023-08-23T14:19:55.385Z,97469.96
2023-08-23T14:22:23.669Z,97463.03
2023-08-23T14:24:52.014Z,97454.45
2023-08-23T14:27:19.916Z,97459.09
2023-08-23T14:29:48.374Z,97461.27
2023-08-23T14:32:18.504Z,97461.94
2023-08-23T14:34:47.282Z,97461.33
2023-08-23T14:37:15.239Z,97457.61
2023-08-23T14:39:45.390Z,97446.79
2023-08-23T14:42:13.278Z,97436.39
2023-08-23T14:44:41.518Z,97423.12
2023-08-23T14:47:10.768Z,97419.05
2023-08-23T14:49:38.945Z,97425.40
2023-08-23T14:52:07.022Z,97437.29
2023-08-23T14:54:35.135Z,97447.74
2023-08-23T14:57:03.311Z,97453.05
2023-08-23T14:59:31.381Z,97450.35
2023-08-23T15:01:59.507Z,97443.23
2023-08-23T15:04:27.677Z,97445.67
2023-08-23T15:06:55.529Z,97443.32
2023-08-23T15:09:23.386Z,97436.61
2023-08-23T15:11:51.431Z,97431.86
2023-08-23T15:14:19.921Z,97425.02
2023-08-23T15:16:48.105Z,97421.07
2023-08-23T15:19:16.166Z,97417.78
2023-08-23T15:21:44.321Z,97416.86
2023-08-23T15:24:12.616Z,97411.52
2023-08-23T15:26:40.822Z,97402.21
2023-08-23T15:29:09.074Z,97397.91
2023-08-23T15:31:37.275Z,97395.69
2023-08-23T15:34:05.762Z,97390.69
2023-08-23T15:36:35.482Z,97390.88
2023-08-23T15:39:04.341Z,97391.87
2023-08-23T15:41:32.248Z,97394.85
2023-08-23T15:44:00.977Z,97392.29
2023-08-23T15:46:29.151Z,97385.67
2023-08-23T15:48:57.270Z,97385.94
2023-08-23T15:51:25.258Z,97388.02
2023-08-23T15:53:53.732Z,97390.31
2023-08-23T15:56:26.357Z,97389.05
2023-08-23T15:58:54.836Z,97383.04
2023-08-23T16:01:23.100Z,97372.05
2023-08-23T16:03:51.302Z,97363.91
2023-08-23T16:06:20.054Z,97357.98
2023-08-23T16:08:48.144Z,97355.91
2023-08-23T16:11:16.530Z,97357.39
2023-08-23T16:13:44.597Z,97358.73
2023-08-23T16:16:12.663Z,97355.00
2023-08-23T16:18:40.656Z,97351.27
2023-08-23T16:21:08.772Z,97353.34
2023-08-23T16:23:39.757Z,97350.13
2023-08-23T16:26:09.848Z,97350.41
2023-08-23T16:28:38.029Z,97356.44
2023-08-23T16:31:06.369Z,97363.19
2023-08-23T16:33:34.392Z,97364.24
2023-08-23T16:36:02.353Z,97361.98
2023-08-23T16:38:30.440Z,97361.89
2023-08-23T16:40:59.109Z,97364.55
2023-08-23T16:43:33.395Z,97366.27
2023-08-23T16:46:01.724Z,97372.89
2023-08-23T16:48:30.181Z,97367.11
2023-08-23T16:51:01.036Z,97363.72
2023-08-23T16:53:30.335Z,97365.14
2023-08-23T16:56:01.387Z,97368.75
2023-08-23T16:58:31.654Z,97364.75
2023-08-23T17:01:00.643Z,97370.72
2023-08-23T17:03:31.317Z,97376.30
2023-08-23T17:06:07.625Z,97385.96
2023-08-23T17:08:35.817Z,97393.89
2023-08-23T17:11:07.035Z,97398.10
2023-08-23T17:13:35.279Z,97392.52
2023-08-23T17:16:03.665Z,97393.59
2023-08-23T17:18:35.094Z,97395.51
2023-08-23T17:21:04.620Z,97388.91
2023-08-23T17:23:34.730Z,97384.98
2023-08-23T17:26:03.275Z,97389.87
2023-08-23T17:28:31.712Z,97398.48
2023-08-23T17:31:00.842Z,97398.98
2023-08-23T17:33:28.980Z,97402.15
2023-08-23T17:35:59.120Z,97405.87
2023-08-23T17:38:27.266Z,97406.59
2023-08-23T17:40:55.451Z,97402.19
2023-08-23T17:43:23.392Z,97407.46
2023-08-23T17:45:51.507Z,97411.64
2023-08-23T17:48:19.954Z,97409.52
2023-08-23T17:50:48.150Z,97411.65
2023-08-23T17:53:16.000Z,97414.55
2023-08-23T17:55:44.119Z,97417.20
2023-08-23T17:58:12.183Z,97416.56
2023-08-23T18:00:40.210Z,97417.75
2023-08-23T18:03:08.140Z,97414.67
2023-08-23T18:05:36.300Z,97421.60
2023-08-23T18:08:04.765Z,97429.47
2023-08-23T18:10:32.676Z,97435.76
2023-08-23T18:13:00.799Z,97442.77
2023-08-23T18:15:28.935Z,97459.05
2023-08-23T18:17:57.078Z,97475.25
2023-08-23T18:20:25.086Z,97485.95
2023-08-23T18:22:54.595Z,97499.31
2023-08-23T18:25:22.692Z,97509.38
2023-08-23T18:27:50.756Z,97518.33
2023-08-23T18:30:18.758Z,97519.18
2023-08-23T18:32:46.986Z,97515.55
2023-08-23T18:35:15.391Z,97516.33
2023-08-23T18:37:43.460Z,97516.85
2023-08-23T18:40:12.137Z,97513.39
2023-08-23T18:42:40.317Z,97520.48
2023-08-23T18:45:08.899Z,97522.58
2023-08-23T18:47:36.973Z,97523.91
2023-08-23T18:50:05.916Z,97527.36
2023-08-23T18:52:33.718Z,97537.28
2023-08-23T18:55:01.753Z,97553.33
2023-08-23T18:57:30.397Z,97572.84
2023-08-23T18:59:58.567Z,97590.54
2023-08-23T19:02:27.062Z,97595.41
2023-08-23T19:04:55.321Z,97583.63
2023-08-23T19:07:23.447Z,97570.02
2023-08-23T19:09:51.526Z,97559.06
2023-08-23T19:12:19.463Z,97557.03
2023-08-23T19:14:47.644Z,97545.45
2023-08-23T19:17:15.682Z,97527.80
2023-08-23T19:19:47.012Z,97522.45
2023-08-23T19:22:15.100Z,97517.02
2023-08-23T19:24:42.972Z,97512.53
2023-08-23T19:27:11.041Z,97509.23
2023-08-23T19:29:40.476Z,97514.95
2023-08-23T19:32:12.087Z,97519.20
2023-08-23T19:34:40.344Z,97526.05
2023-08-23T19:37:08.964Z,97526.36
2023-08-23T19:39:37.085Z,97528.33
2023-08-23T19:42:05.468Z,97543.35
2023-08-23T19:44:33.485Z,97540.52
2023-08-23T19:47:01.871Z,97530.42
2023-08-23T19:49:29.801Z,97514.74
2023-08-23T19:51:58.257Z,97496.02
2023-08-23T19:54:26.198Z,97493.01
2023-08-23T19:56:54.118Z,97481.98
2023-08-23T19:59:22.085Z,97475.67
2023-08-23T20:01:50.615Z,97480.15
2023-08-23T20:04:18.699Z,97483.69
2023-08-23T20:06:47.053Z,97487.23
2023-08-23T20:09:15.203Z,97486.60
2023-08-23T20:11:44.527Z,97483.75
2023-08-23T20:14:12.498Z,97486.20
2023-08-23T20:16:40.730Z,97486.27
2023-08-23T20:19:09.586Z,97474.55
2023-08-23T20:21:38.172Z,97471.71
2023-08-23T20:24:09.678Z,97464.02
2023-08-23T20:26:37.657Z,97466.23
2023-08-23T20:29:07.915Z,97461.27
2023-08-23T20:31:35.769Z,97457.27
2023-08-23T20:34:04.753Z,97454.62
2023-08-23T20:36:32.920Z,97451.24
2023-08-23T20:39:00.852Z,97451.79
2023-08-23T20:41:28.844Z,97450.21
2023-08-23T20:43:56.898Z,97454.59
2023-08-23T20:46:24.882Z,97457.27
2023-08-23T20:48:53.081Z,97459.53
2023-08-23T20:51:21.079Z,97456.83
2023-08-23T20:53:50.132Z,97452.56
2023-08-23T20:56:18.244Z,97457.18
2023-08-23T20:58:46.317Z,97459.20
2023-08-23T21:01:14.368Z,97469.63
2023-08-23T21:03:42.414Z,97473.05
2023-08-23T21:06:11.831Z,97474.91
2023-08-23T21:08:40.635Z,97485.72
2023-08-23T21:11:08.389Z,97490.41
2023-08-23T21:13:36.571Z,97497.84
2023-08-23T21:16:04.666Z,97503.64
2023-08-23T21:18:32.601Z,97509.02
2023-08-23T21:21:00.884Z,97500.19
2023-08-23T21:23:29.540Z,97493.48
2023-08-23T21:25:57.725Z,97486.30
2023-08-23T21:28:25.713Z,97482.44
2023-08-23T21:30:53.782Z,97480.31
2023-08-23T21:33:23.203Z,97467.44
2023-08-23T21:35:51.609Z,97454.86
2023-08-23T21:38:19.948Z,97451.77
2023-08-23T21:40:55.583Z,97444.58
2023-08-23T21:43:26.418Z,97447.92
2023-08-23T21:45:54.564Z,97447.73
2023-08-23T21:48:23.823Z,97450.60
2023-08-23T21:50:52.880Z,97454.97
2023-08-23T21:53:21.075Z,97449.40
2023-08-23T21:55:54.963Z,97449.28
2023-08-23T21:58:29.509Z,97455.00
2023-08-23T22:01:01.601Z,97461.64
2023-08-23T22:03:38.358Z,97453.23
2023-08-23T22:06:08.741Z,97452.11
2023-08-23T22:08:38.742Z,97460.26
2023-08-23T22:11:10.107Z,97463.30
2023-08-23T22:13:42.608Z,97463.98
2023-08-23T22:16:11.561Z,97463.98
2023-08-23T22:18:40.178Z,97464.09
2023-08-23T22:21:11.424Z,97466.38
2023-08-23T22:23:39.658Z,97466.73
2023-08-23T22:26:07.987Z,97470.33
2023-08-23T22:28:35.993Z,97467.94
2023-08-23T22:31:04.199Z,97463.51
2023-08-23T22:33:32.224Z,97458.08
2023-08-23T22:36:00.319Z,97459.17
2023-08-23T22:38:28.586Z,97460.23
2023-08-23T22:40:56.979Z,97459.22
2023-08-23T22:43:25.446Z,97457.35
2023-08-23T22:45:54.832Z,97461.05
2023-08-23T22:48:23.410Z,97456.88
2023-08-23T22:50:52.007Z,97456.71
2023-08-23T22:53:20.160Z,97456.29
2023-08-23T22:55:48.306Z,97454.23
2023-08-23T22:58:16.526Z,97449.73
2023-08-23T23:00:44.660Z,97451.04
2023-08-23T23:03:12.774Z,97447.25
2023-08-23T23:05:41.126Z,97442.29
2023-08-23T23:08:09.337Z,97442.56
2023-08-23T23:10:37.793Z,97433.73
2023-08-23T23:13:05.930Z,97432.43
2023-08-23T23:15:34.356Z,97432.64
2023-08-23T23:18:03.716Z,97432.30
2023-08-23T23:20:31.741Z,97430.30
2023-08-23T23:22:59.697Z,97429.69
2023-08-23T23:25:29.200Z,97429.48
2023-08-23T23:27:57.141Z,97427.80
2023-08-23T23:30:25.886Z,97425.55
2023-08-23T23:32:54.118Z,97426.85
2023-08-23T23:35:22.469Z,97426.51
2023-08-23T23:37:50.596Z,97422.56
2023-08-23T23:40:19.112Z,97416.97
2023-08-23T23:42:47.036Z,97416.49
2023-08-23T23:45:35.355Z,97419.29
2023-08-23T23:48:04.188Z,97424.36
2023-08-23T23:50:33.006Z,97424.35
2023-08-23T23:53:01.823Z,97424.90
2023-08-23T23:55:30.137Z,97427.72
2023-08-23T23:57:58.339Z,97428.04
